Livorno Express — ZCDV9 — position and weather

sailwx.info

Track history (hours):
 
Tides and Currents Weather Stations Pressure Air Temp Water Temp Dewpoint Dewpoint Depression Visibility Wind Speed Wind Dir Waves Ship Positions

Livorno Express

Last reported at 2014-Nov-01 09:33 UTC. Time now 2014-Nov-01 10:31 UTC.
Position N 39°13' E 009°05'.

Type: Cargo ship. MMSI: 310541000.

Date/timePositionNaut miles runAvg speedWind from/ knotsBaromVisibWave heightAir tempDewpointWater temp
2014-Nov-01 09:33N 39°13' E 009°05'0 0.0
2014-Nov-01 08:33N 39°13' E 009°05'0 0.0
2014-Nov-01 07:33N 39°13' E 009°05'0 0.0
2014-Nov-01 06:33N 39°13' E 009°05'0 0.0
2014-Nov-01 05:33N 39°13' E 009°05'0 0.0
2014-Nov-01 04:33N 39°13' E 009°05'0 0.0
2014-Nov-01 03:33N 39°13' E 009°05'0 0.0
2014-Nov-01 02:33N 39°13' E 009°05'0 0.0
2014-Nov-01 01:33N 39°13' E 009°05'0 0.0
2014-Nov-01 00:33N 39°13' E 009°05'0 0.0
2014-Oct-31 23:33N 39°13' E 009°05'0 0.0
2014-Oct-31 22:33N 39°13' E 009°05'0 0.0
2014-Oct-31 21:33N 39°13' E 009°05'0 0.0
2014-Oct-31 20:33N 39°13' E 009°05'0 0.0
2014-Oct-31 19:33N 39°13' E 009°05'0 0.0
2014-Oct-31 18:33N 39°13' E 009°05'0 0.0
2014-Oct-31 17:33N 39°13' E 009°05'1 1.4
2014-Oct-31 16:33N 39°12' E 009°06'5 4.6
2014-Oct-31 15:33N 39°07' E 009°07'5 5.4
2014-Oct-31 14:33N 39°04' E 009°13'1211.6
2014-Oct-31 13:32N 38°57' E 009°25'24117.3
2014-Oct-30 23:34N 36°45' E 013°41'1918.5
2014-Oct-30 22:34N 36°39' E 014°03'1818.2
2014-Oct-30 21:33N 36°32' E 014°24'44816.9
2014-Oct-29 19:04N 36°48' E 023°42'1219.1
2014-Oct-29 18:27N 36°58' E 023°50'2019.0
2014-Oct-29 17:22N 37°16' E 024°04'1518.4
2014-Oct-29 16:33N 37°27' E 024°16'1817.8
2014-Oct-29 15:33N 37°40' E 024°31'59 1.6
2014-Oct-28 03:06N 37°51' E 025°44'1018.6
2014-Oct-28 02:33N 37°41' E 025°46'1818.4
2014-Oct-28 01:33N 37°24' E 025°53'1818.1
2014-Oct-28 00:33N 37°08' E 026°05'1716.7
2014-Oct-27 23:33N 36°54' E 026°17'1413.4
2014-Oct-27 22:30N 36°48' E 026°33'9 1.1
2014-Oct-27 13:33N 36°40' E 026°38'3718.0
2014-Oct-27 11:29N 36°13' E 027°10'26317.6
2014-Oct-26 20:32N 35°49' E 032°34'  
Track history (hours):
 
Tides and Currents Weather Stations Pressure Air Temp Water Temp Dewpoint Dewpoint Depression Visibility Wind Speed Wind Dir Waves Ship Positions

Livorno Express

Last reported at 2014-Nov-01 09:33 UTC. Time now 2014-Nov-01 10:31 UTC.
Position N 39°13' E 009°05'.

Type: Cargo ship. MMSI: 310541000.

Date/timePositionNaut miles runAvg speedWind from/ knotsBaromVisibWave heightAir tempDewpointWater temp
2014-Nov-01 09:33N 39°13' E 009°05'0 0.0
2014-Nov-01 08:33N 39°13' E 009°05'0 0.0
2014-Nov-01 07:33N 39°13' E 009°05'0 0.0
2014-Nov-01 06:33N 39°13' E 009°05'0 0.0
2014-Nov-01 05:33N 39°13' E 009°05'0 0.0
2014-Nov-01 04:33N 39°13' E 009°05'0 0.0
2014-Nov-01 03:33N 39°13' E 009°05'0 0.0
2014-Nov-01 02:33N 39°13' E 009°05'0 0.0
2014-Nov-01 01:33N 39°13' E 009°05'0 0.0
2014-Nov-01 00:33N 39°13' E 009°05'0 0.0
2014-Oct-31 23:33N 39°13' E 009°05'0 0.0
2014-Oct-31 22:33N 39°13' E 009°05'0 0.0
2014-Oct-31 21:33N 39°13' E 009°05'0 0.0
2014-Oct-31 20:33N 39°13' E 009°05'0 0.0
2014-Oct-31 19:33N 39°13' E 009°05'0 0.0
2014-Oct-31 18:33N 39°13' E 009°05'0 0.0
2014-Oct-31 17:33N 39°13' E 009°05'1 1.4
2014-Oct-31 16:33N 39°12' E 009°06'5 4.6
2014-Oct-31 15:33N 39°07' E 009°07'5 5.4
2014-Oct-31 14:33N 39°04' E 009°13'1211.6
2014-Oct-31 13:32N 38°57' E 009°25'24117.3
2014-Oct-30 23:34N 36°45' E 013°41'1918.5
2014-Oct-30 22:34N 36°39' E 014°03'1818.2
2014-Oct-30 21:33N 36°32' E 014°24'44816.9
2014-Oct-29 19:04N 36°48' E 023°42'1219.1
2014-Oct-29 18:27N 36°58' E 023°50'2019.0
2014-Oct-29 17:22N 37°16' E 024°04'1518.4
2014-Oct-29 16:33N 37°27' E 024°16'1817.8
2014-Oct-29 15:33N 37°40' E 024°31'59 1.6
2014-Oct-28 03:06N 37°51' E 025°44'1018.6
2014-Oct-28 02:33N 37°41' E 025°46'1818.4
2014-Oct-28 01:33N 37°24' E 025°53'1818.1
2014-Oct-28 00:33N 37°08' E 026°05'1716.7
2014-Oct-27 23:33N 36°54' E 026°17'1413.4
2014-Oct-27 22:30N 36°48' E 026°33'9 1.1
2014-Oct-27 13:33N 36°40' E 026°38'3718.0
2014-Oct-27 11:29N 36°13' E 027°10'26317.6
2014-Oct-26 20:32N 35°49' E 032°34'  

Dump ship's entire track history